< < Back
Terminal Aerodrome Forecast


Current Version              Previous Versions:   1  2  3  4  5  6  7  8  9  

Terminal Aerodrome Forecast

054
FTUS42 KMLB 010500
TAFDAB
TAF
KDAB 010530Z 0106/0206 00000KT P6SM SCT100 SCT250
     FM011400 21005KT P6SM SCT030 SCT250
     FM011800 11008KT P6SM VCTS BKN035CB
      TEMPO 0119/0123 3SM TSRA BKN020CB OVC040
     FM020000 14006KT P6SM SCT040 BKN100 OVC120=

Latest METAR

178
SAUS80 KWBC 020600 RRA
MTRDAB
METAR KDAB 020553Z 00000KT 10SM FEW080 FEW250 26/24 A2998 RMK AO2 SLP152
T02560244 10289 20256 58004 $


USA.gov is the U.S. government's official web portal to all federal, state and local government web resources and services.